Aviation Digital Data Service (ADDS)

Output produced by METARs form (2044 UTC 15 August 2018)
found at http://aviationweather.gov/adds/metars/
 
CYYZ 152000Z 28011G17KT 15SM FEW060 OVC220 31/18 A2992 RMK CU1CS7 SLP132 DENSITY ALT 2500FT
CYYZ 151900Z 27012KT 15SM FEW055 OVC220 30/19 A2993 RMK CU2CS6 SLP134 DENSITY ALT 2500FT
CYYZ 151800Z 28012KT 15SM FEW055 OVC220 31/20 A2993 RMK CU1CS7 SLP134 DENSITY ALT 2600FT
TAF CYYZ 152038Z 1521/1624 28010G20KT P6SM FEW060 BKN220 
     BECMG 1601/1603 31005KT 
     FM160600 VRB03KT P6SM FEW004 
     PROB30 1609/1612 1/2SM FG 
     FM161600 20010KT P6SM -SHRA BKN030 OVC120 
     PROB30 1617/1619 2SM TSRA BR BKN020CB 
     FM161900 22010G20KT P6SM -SHRA BKN025 OVC120 RMK NXT FCST BY 160000Z
       
CYKF 152000Z AUTO 27012G20KT 230V290 9SM FEW049 SCT220 29/18 A2998 RMK SLP149 DENSITY ALT 2800FT
CYKF 151900Z AUTO 25013KT 230V310 9SM CLR 30/18 A2998 RMK SLP150 DENSITY ALT 2900FT
CYKF 151800Z AUTO 26014G19KT 9SM CLR 29/16 A2998 RMK SLP149 DENSITY ALT 2700FT
TAF CYKF 151938Z 1520/1608 26010G20KT P6SM FEW040 BKN240 
     BECMG 1522/1524 27008KT 
     FM160300 VRB03KT P6SM FEW030 BKN240 
     PROB30 1607/1608 1SM BR RMK FCST BASED ON AUTO OBS. NXT FCST BY 160200Z
       
CYBN 152000Z AUTO 28010G15KT 9SM FEW052 FEW060 30/18 A2993 RMK SLP133
CYBN 151900Z AUTO 29008KT 250V310 9SM FEW052 FEW058 FEW090 30/17 A2993 RMK SLP134
CYBN 151800Z AUTO 27009KT 220V340 9SM FEW050 30/18 A2993 RMK SLP133
TAF CYBN 151730Z 1518/1606 30010KT P6SM FEW050 
     TEMPO 1518/1606 P6SM -SHRA BKN060 RMK FCST BASED ON AUTO OBS. NXT FCST BY 160000Z
       
CYXU 152000Z 27006KT 230V300 12SM SCT040 OVC200 27/20 A3000 RMK CU4CI4 SLP157 DENSITY ALT 2500FT
CYXU 151900Z 27008KT 12SM SCT040 BKN220 27/19 A3001 RMK CU3CS4 SLP159 DENSITY ALT 2400FT
CYXU 151800Z 28009KT 230V310 15SM FEW037 BKN210 27/19 A3001 RMK CU2CS5 SLP158 DENSITY ALT 2500FT
TAF CYXU 151738Z 1518/1618 27012KT P6SM FEW030 BKN210 
     FM160000 22008KT P6SM BKN220 
     FM160600 VRB03KT P6SM FEW004 BKN200 
     PROB30 1608/1612 1/2SM FG 
     FM161300 19006KT P6SM -SHRA BKN030 OVC120 
     FM161400 17010KT 4SM -SHRA BR SCT008 OVC015 
     PROB30 1614/1618 2SM SHRA BR BKN008 OVC015 RMK NXT FCST BY 160000Z
       
CYHM 152000Z 26011G18KT 7SM FEW040 FEW060 BKN250 29/18 A2997 RMK CU1SC1CI4 CONTRAILS SLP148 DENSITY ALT 2500FT
CYHM 151900Z 27011G16KT 8SM FEW040TCU SCT065 BKN250 29/18 A2998 RMK TCU1SC2CI3 SLP150 DENSITY ALT 2500FT
CYHM 151800Z 28009KT 15SM FEW035 SCT220 BKN240 28/20 A2997 RMK CU1CI2CS3 HALO SLP148 DENSITY ALT 2400FT
TAF CYHM 151738Z 1518/1618 25012KT P6SM FEW040 BKN220 
     BECMG 1602/1604 VRB03KT 
     FM160600 VRB03KT P6SM FEW004 
     PROB30 1608/1612 1/2SM FG 
     FM161500 21010KT P6SM -SHRA BKN030 OVC120 
     BECMG 1616/1618 21010G20KT RMK NXT FCST BY 160000Z
       
CYQA 152000Z AUTO 26009KT 220V300 9SM BKN036 OVC046 27/19 A2993 RMK SLP135 DENSITY ALT 2400FT
CYQA 151900Z AUTO 25008KT 220V290 9SM SCT043 SCT050 BKN070 27/19 A2993 RMK SLP135 DENSITY ALT 2400FT
CYQA 151800Z AUTO 25007KT 9SM BKN047 BKN060 BKN071 26/20 A2993 RMK SLP135 DENSITY ALT 2300FT
TAF CYQA 151938Z 1520/1602 26010KT P6SM SCT040 BKN070 
     TEMPO 1520/1522 P6SM -SHRA BKN040 
     BECMG 1523/1601 VRB03KT RMK FCST BASED ON AUTO OBS. NXT FCST WILL BE ISSUED AT 161145Z
       
CYVV 152000Z 27007KT 12SM FEW028 SCT250 27/20 A2996 RMK CU1CS2 HAZE WND ESTD SLP143 DENSITY ALT 2300FT
CYVV 151900Z 27007KT 12SM FEW030 SCT250 26/20 A2995 RMK CU1CS3 HAZE WND ESTD SLP142 DENSITY ALT 2200FT
CYVV 151800Z 27007KT 10SM FEW030 BKN250 27/20 A2995 RMK CU2CS3 HAZE WND ESTD SLP141 DENSITY ALT 2300FT
TAF CYVV 151938Z 1520/1523 28007KT P6SM SCT030 BKN250 RMK NXT FCST WILL BE ISSUED AT 161045Z
       
CYZR 152000Z AUTO 24007KT 190V250 9SM SCT050 BKN070 30/19 A2998 RMK RVR MISG SLP149 DENSITY ALT 2300FT
CYZR 151900Z AUTO 28007KT 9SM FEW240 29/19 A2999 RMK RVR MISG SLP152 DENSITY ALT 2200FT
CYZR 151800Z AUTO 26007KT 9SM FEW043 29/20 A2999 RMK RVR MISG SLP152 DENSITY ALT 2200FT
TAF CYZR 151938Z 1520/1602 28008KT P6SM BKN250 
     FM152100 21008KT P6SM SCT040 BKN240 RMK FCST BASED ON AUTO OBS. NXT FCST WILL BE ISSUED AT 160745Z
       
CYPQ 152000Z AUTO 27015G20KT 9SM FEW075 30/18 A2991 RMK SLP127 DENSITY ALT 2500FT
CYPQ 151900Z AUTO 29011G17KT 9SM SCT044 BKN055 BKN220 30/20 A2991 RMK LTNG DIST E TS/LTNG TEMPO UNAVBL SLP127 DENSITY ALT 2400FT
CYPQ 151800Z AUTO 26013KT 250V310 9SM BKN042 29/20 A2991 RMK SLP127 DENSITY ALT 2400FT
TAF CYPQ 151938Z 1520/1602 29015KT P6SM SCT050 
     TEMPO 1520/1524 P6SM -SHRA BKN050 
     PROB30 1520/1523 2SM +TSRA BR OVC030CB 
     FM160100 VRB03KT P6SM SCT050 RMK FCST BASED ON AUTO OBS. NXT FCST WILL BE ISSUED AT 160945Z
       
CWLS 152000Z AUTO 25007KT 27/18 RMK AO1 PK WND 28017/1934 SLP149 T02700175 50001
CWLS 151900Z AUTO 28007KT 27/17 RMK AO1 SLP151 T02720172 53002
CWLS 151800Z AUTO 29008KT 27/16 RMK AO1 SLP149 T02660161 55002
CWCO 152000Z AUTO 35003KT 25/20 RMK AO1 SLP129 T02520195 52004
CWCO 151900Z AUTO 36005KT 25/20 RMK AO1 SLP128 T02540204 53002
CWCO 151800Z AUTO 35004KT 26/21 RMK AO1 SLP126 T02600206 55002